Weather History for Chippewa, MI

Change the Weather History Date:

Thursday, December 15, 2011

  Actual Average Record
Temperature  
Mean Temperature 34 °F -  
Max Temperature 39 °F 32 °F 43 °F (1993)
Min Temperature 28 °F 14 °F -10 °F (1989)
Degree Days  
Heating Degree Days 32    
Moisture  
Dew Point 33 °F    
Average Humidity 88    
Maximum Humidity 93    
Minimum Humidity 75    
Precipitation  
Precipitation 0.13 in - - ()
Sea Level Pressure  
Sea Level Pressure 29.51 in    
Wind  
Wind Speed 9 mph (WSW)    
Max Wind Speed 21 mph    
Max Gust Speed 31 mph    
Visibility 6 miles    
Events      
Averages and records for this station are not official NWS values.
T = Trace of Precipitation, MM = Missing Value Source: NWS Daily Summary

Daily Weather History Graph

Daily Weather History Graph

Search for Another Location

Airport:

Trip Planner

Search our weather history database for the weather conditions in past years. The results will help you decide how hot, cold, wet, or windy it might be!

Date:

Astronomy

Dec. 15, 2011 Rise Set
Actual Time 8:13 AM EST 4:52 PM EST
Civil Twilight 7:39 AM EST 5:26 PM EST
Nautical Twilight 7:00 AM EST 6:05 PM EST
Astronomical Twilight 6:24 AM EST 6:41 PM EST
Moon 10:33 PM EST (12/15) 11:15 AM EST (12/15)
Length of Visible Light 9h 47m
Length of Day
8h 38m
Waning Gibbous, 75% of the Moon is Illuminated
Dec 15
Waning Gibbous
Dec 17
Last Quarter
Dec 24
New
Jan 1
First Quarter
Jan 9
Full

Hourly Weather History & Observations

Time (EST) Temp. Windchill Dew Point Humidity Pressure Visibility Wind Dir Wind Speed Gust Speed Precip Events Conditions
12:15 AM 37.4 °F 30.8 °F 35.6 °F 93% 29.58 in 3.0 mi SE 9.2 mph - N/A   Overcast
12:35 AM 37.4 °F 30.8 °F 35.6 °F 93% 29.57 in 1.8 mi SE 9.2 mph - N/A   Overcast
12:55 AM 37.4 °F 30.3 °F 35.6 °F 93% 29.55 in 0.8 mi SE 10.4 mph - 0.03 in   Overcast
1:15 AM 37.4 °F 30.8 °F 35.6 °F 93% 29.54 in 0.8 mi SE 9.2 mph - 0.01 in   Overcast
1:35 AM 39.2 °F 33.0 °F 35.6 °F 87% 29.53 in 0.8 mi SE 9.2 mph - 0.01 in   Overcast
2:15 AM 39.2 °F 34.2 °F 35.6 °F 87% 29.51 in 1.2 mi SE 6.9 mph - 0.02 in   Overcast
2:35 AM 39.2 °F 33.6 °F 35.6 °F 87% 29.48 in 2.0 mi ESE 8.1 mph - 0.03 in   Overcast
2:55 AM 39.2 °F 35.0 °F 37.4 °F 93% 29.48 in 10.0 mi SE 5.8 mph - 0.05 in   Overcast
3:15 AM 39.2 °F 35.9 °F 35.6 °F 87% 29.47 in 1.5 mi SSE 4.6 mph - N/A   Overcast
3:35 AM 39.2 °F 35.9 °F 35.6 °F 87% 29.47 in 0.8 mi SE 4.6 mph - N/A   Overcast
3:55 AM 39.2 °F 35.9 °F 37.4 °F 93% 29.45 in 0.5 mi SE 4.6 mph - N/A   Overcast
4:15 AM 39.2 °F 35.9 °F 35.6 °F 87% 29.44 in 0.5 mi SE 4.6 mph - N/A   Overcast
5:15 AM 39.2 °F - 37.4 °F 93% 29.43 in 1.0 mi Calm Calm - N/A   Overcast
5:35 AM 39.2 °F 37.0 °F 37.4 °F 93% 29.42 in 0.5 mi WSW 3.5 mph - N/A   Mostly Cloudy
5:55 AM 39.2 °F 35.9 °F 37.4 °F 93% 29.42 in 0.5 mi WSW 4.6 mph - N/A   Unknown
6:15 AM 39.2 °F 35.0 °F 37.4 °F 93% 29.42 in 0.5 mi WSW 5.8 mph - N/A   Overcast
6:35 AM 39.2 °F 34.2 °F 37.4 °F 93% 29.42 in 0.8 mi West 6.9 mph - N/A   Overcast
6:55 AM 39.2 °F 34.2 °F 35.6 °F 87% 29.42 in 1.2 mi WSW 6.9 mph - N/A   Overcast
7:35 AM 39.2 °F 34.2 °F 35.6 °F 87% 29.42 in 4.0 mi West 6.9 mph - N/A   Overcast
7:55 AM 39.2 °F 34.2 °F 35.6 °F 87% 29.42 in 10.0 mi West 6.9 mph - N/A   Overcast
8:15 AM 39.2 °F 34.2 °F 35.6 °F 87% 29.42 in 10.0 mi West 6.9 mph - N/A   Overcast
8:35 AM 39.2 °F 35.0 °F 35.6 °F 87% 29.43 in 10.0 mi West 5.8 mph - N/A   Overcast
8:55 AM 37.4 °F 30.3 °F 35.6 °F 93% 29.43 in 10.0 mi West 10.4 mph - 0.01 in   Overcast
9:15 AM 37.4 °F 30.8 °F 35.6 °F 93% 29.43 in 10.0 mi West 9.2 mph - N/A   Overcast
9:55 AM 37.4 °F 29.8 °F 35.6 °F 93% 29.45 in 10.0 mi West 11.5 mph - N/A   Overcast
10:15 AM 37.4 °F 29.8 °F 35.6 °F 93% 29.46 in 10.0 mi West 11.5 mph 19.6 mph N/A   Overcast
10:35 AM 37.4 °F 29.8 °F 33.8 °F 87% 29.47 in 9.0 mi West 11.5 mph 19.6 mph N/A   Overcast
10:55 AM 37.4 °F 30.3 °F 33.8 °F 87% 29.47 in 10.0 mi West 10.4 mph 17.3 mph N/A   Overcast
11:15 AM 37.4 °F 29.3 °F 33.8 °F 87% 29.47 in 10.0 mi West 12.7 mph 17.3 mph N/A   Overcast
11:35 AM 37.4 °F 29.8 °F 33.8 °F 87% 29.47 in 10.0 mi West 11.5 mph - N/A   Overcast
11:55 AM 37.4 °F 29.3 °F 33.8 °F 87% 29.46 in 10.0 mi West 12.7 mph 16.1 mph N/A   Overcast
12:15 PM 37.4 °F 30.3 °F 33.8 °F 87% 29.47 in 10.0 mi West 10.4 mph - N/A   Overcast
12:35 PM 37.4 °F 29.3 °F 33.8 °F 87% 29.46 in 10.0 mi West 12.7 mph - N/A   Overcast
12:55 PM 37.4 °F 29.3 °F 33.8 °F 87% 29.46 in 7.0 mi West 12.7 mph - N/A   Overcast
1:15 PM 37.4 °F 30.3 °F 33.8 °F 87% 29.47 in 4.0 mi West 10.4 mph - N/A   Overcast
1:35 PM 37.4 °F 30.3 °F 33.8 °F 87% 29.47 in 5.0 mi WSW 10.4 mph - N/A   Overcast
1:55 PM 37.4 °F 30.8 °F 33.8 °F 87% 29.47 in 4.0 mi WSW 9.2 mph 16.1 mph N/A   Overcast
2:15 PM 35.6 °F 28.6 °F 33.8 °F 93% 29.47 in 3.0 mi West 9.2 mph 17.3 mph N/A   Overcast
2:35 PM 35.6 °F 28.6 °F 33.8 °F 93% 29.48 in 2.5 mi WSW 9.2 mph 16.1 mph 0.01 in   Overcast
2:55 PM 35.6 °F 28.6 °F 33.8 °F 93% 29.48 in 3.0 mi WSW 9.2 mph - 0.01 in   Overcast
3:15 PM 35.6 °F 27.5 °F 33.8 °F 93% 29.49 in 8.0 mi West 11.5 mph 16.1 mph N/A   Overcast
3:35 PM 35.6 °F 27.1 °F 33.8 °F 93% 29.50 in 8.0 mi West 12.7 mph - N/A   Overcast
3:55 PM 35.6 °F 28.6 °F 33.8 °F 93% 29.51 in 7.0 mi West 9.2 mph - 0.01 in   Overcast
4:15 PM 35.6 °F 28.6 °F 33.8 °F 93% 29.52 in 10.0 mi West 9.2 mph - N/A   Overcast
4:55 PM 35.6 °F 25.9 °F 30.2 °F 81% 29.54 in 9.0 mi West 16.1 mph 31.1 mph 0.01 in   Overcast
5:15 PM 35.6 °F 24.5 °F 28.4 °F 75% 29.55 in 10.0 mi WNW 20.7 mph 26.5 mph N/A   Mostly Cloudy
5:35 PM 33.8 °F 23.9 °F 30.2 °F 87% 29.57 in 10.0 mi West 15.0 mph - N/A   Mostly Cloudy
6:35 PM 32.0 °F 20.8 °F 26.6 °F 80% 29.60 in 7.0 mi WNW 17.3 mph 25.3 mph N/A   Overcast
6:55 PM 30.2 °F 17.8 °F 26.6 °F 86% 29.61 in 7.0 mi West 19.6 mph 27.6 mph N/A   Overcast
7:15 PM 30.2 °F 18.9 °F 26.6 °F 86% 29.63 in 8.0 mi West 16.1 mph 23.0 mph N/A   Overcast
7:35 PM 30.2 °F 19.8 °F 26.6 °F 86% 29.64 in 3.0 mi West 13.8 mph 19.6 mph N/A   Overcast
7:55 PM 30.2 °F 19.3 °F 24.8 °F 80% 29.65 in 7.0 mi West 15.0 mph 21.9 mph N/A   Overcast
8:15 PM 30.2 °F 20.2 °F 26.6 °F 86% 29.66 in 10.0 mi West 12.7 mph 21.9 mph N/A   Overcast
8:35 PM 30.2 °F 19.3 °F 24.8 °F 80% 29.67 in 10.0 mi West 15.0 mph 20.7 mph N/A   Overcast
8:55 PM 28.4 °F 19.1 °F 24.8 °F 86% 29.68 in 3.0 mi WSW 10.4 mph 17.3 mph N/A   Overcast
9:15 PM 28.4 °F 19.1 °F 24.8 °F 86% 29.69 in 5.0 mi WSW 10.4 mph 19.6 mph N/A   Overcast
9:35 PM 28.4 °F 18.5 °F 24.8 °F 86% 29.70 in 3.0 mi WSW 11.5 mph 17.3 mph N/A   Overcast
9:55 PM 28.4 °F 18.5 °F 24.8 °F 86% 29.71 in 2.0 mi West 11.5 mph 18.4 mph N/A   Overcast
10:15 PM 28.4 °F 18.0 °F 24.8 °F 86% 29.72 in 4.0 mi West 12.7 mph 20.7 mph N/A   Overcast
10:35 PM 28.4 °F 17.0 °F 24.8 °F 86% 29.73 in 3.0 mi West 15.0 mph 20.7 mph N/A   Overcast
10:55 PM 28.4 °F 15.1 °F 23.0 °F 80% 29.74 in 10.0 mi West 20.7 mph 25.3 mph N/A   Overcast
11:55 PM 28.4 °F 17.5 °F 23.0 °F 80% 29.78 in 10.0 mi West 13.8 mph 23.0 mph N/A   Overcast